createdAt,value
2022-10-13T00:00:52.761Z,97.99
2022-10-13T00:01:52.691Z,98.20
2022-10-13T00:02:52.682Z,98.20
2022-10-13T00:03:52.680Z,97.38
2022-10-13T00:04:52.653Z,97.69
2022-10-13T00:05:52.691Z,98.10
2022-10-13T00:06:52.632Z,97.28
2022-10-13T00:07:52.630Z,98.20
2022-10-13T00:08:52.611Z,98.20
2022-10-13T00:09:52.600Z,98.71
2022-10-13T00:10:52.581Z,98.71
2022-10-13T00:11:52.590Z,98.92
2022-10-13T00:12:52.563Z,99.84
2022-10-13T00:13:52.562Z,99.99
2022-10-13T00:14:52.542Z,99.99
2022-10-13T00:15:52.530Z,99.99
2022-10-13T00:16:52.541Z,99.99
2022-10-13T00:17:52.511Z,99.99
2022-10-13T00:18:52.490Z,99.32
2022-10-13T00:19:52.480Z,98.70
2022-10-13T00:20:52.468Z,98.70
2022-10-13T00:21:52.460Z,98.91
2022-10-13T00:22:52.469Z,99.11
2022-10-13T00:23:52.441Z,99.42
2022-10-13T00:24:52.420Z,99.73
2022-10-13T00:25:52.410Z,99.83
2022-10-13T00:26:52.400Z,99.99
2022-10-13T00:27:52.390Z,99.99
2022-10-13T00:28:53.051Z,99.99
2022-10-13T00:29:52.369Z,99.77
2022-10-13T00:30:52.350Z,99.98
2022-10-13T00:31:52.340Z,99.99
2022-10-13T00:32:52.329Z,99.99
2022-10-13T00:33:52.358Z,99.99
2022-10-13T00:34:52.307Z,99.99
2022-10-13T00:35:52.299Z,99.99
2022-10-13T00:36:52.279Z,99.99
2022-10-13T00:37:52.269Z,99.99
2022-10-13T00:38:52.260Z,99.99
2022-10-13T00:39:52.268Z,99.99
2022-10-13T00:40:52.231Z,99.99
2022-10-13T00:41:52.230Z,99.99
2022-10-13T00:42:52.209Z,99.99
2022-10-13T00:43:52.209Z,99.99
2022-10-13T00:44:52.220Z,99.99
2022-10-13T00:45:52.179Z,99.66
2022-10-13T00:46:52.172Z,99.99
2022-10-13T00:47:52.158Z,99.99
2022-10-13T00:48:52.139Z,99.99
2022-10-13T00:49:52.139Z,99.99
2022-10-13T00:50:52.138Z,99.99
2022-10-13T00:51:52.121Z,99.99
2022-10-13T00:52:52.099Z,99.99
2022-10-13T00:53:52.098Z,99.99
2022-10-13T00:54:52.078Z,99.99
2022-10-13T00:55:52.090Z,99.99
2022-10-13T00:56:52.058Z,99.99
2022-10-13T00:57:52.048Z,99.99
2022-10-13T00:58:52.029Z,99.99
2022-10-13T00:59:52.028Z,99.99
2022-10-13T01:00:52.102Z,99.99
2022-10-13T01:01:52.029Z,99.99
2022-10-13T01:02:51.987Z,99.99
2022-10-13T01:03:51.998Z,99.99
2022-10-13T01:04:51.962Z,99.99
2022-10-13T01:05:51.957Z,99.91
2022-10-13T01:06:51.948Z,99.87
2022-10-13T01:07:51.981Z,99.97
2022-10-13T01:08:51.920Z,99.97
2022-10-13T01:09:51.917Z,99.46
2022-10-13T01:10:51.897Z,99.77
2022-10-13T01:11:51.888Z,98.94
2022-10-13T01:12:51.868Z,98.63
2022-10-13T01:13:51.897Z,97.97
2022-10-13T01:14:51.848Z,98.59
2022-10-13T01:15:51.846Z,98.69
2022-10-13T01:16:51.827Z,98.65
2022-10-13T01:17:51.821Z,98.65
2022-10-13T01:18:51.797Z,99.05
2022-10-13T01:19:51.819Z,98.75
2022-10-13T01:20:51.778Z,99.21
2022-10-13T01:21:51.767Z,99.01
2022-10-13T01:22:51.756Z,98.44
2022-10-13T01:23:51.757Z,98.33
2022-10-13T01:24:51.735Z,97.57
2022-10-13T01:25:51.737Z,97.67
2022-10-13T01:26:51.708Z,97.57
2022-10-13T01:27:51.699Z,97.27
2022-10-13T01:28:51.687Z,97.27
2022-10-13T01:29:51.677Z,95.83
2022-10-13T01:30:51.697Z,95.72
2022-10-13T01:31:51.656Z,96.70
2022-10-13T01:32:51.637Z,97.12
2022-10-13T01:33:51.637Z,96.70
2022-10-13T01:34:51.616Z,96.81
2022-10-13T01:35:51.607Z,96.40
2022-10-13T01:36:51.626Z,96.60
2022-10-13T01:37:51.586Z,96.19
2022-10-13T01:38:51.568Z,94.85
2022-10-13T01:39:51.565Z,92.91
2022-10-13T01:40:51.547Z,92.08
2022-10-13T01:41:51.537Z,91.99
2022-10-13T01:42:51.547Z,93.32
2022-10-13T01:43:51.530Z,95.06
2022-10-13T01:44:51.507Z,94.76
2022-10-13T01:45:51.498Z,93.42
2022-10-13T01:46:51.478Z,94.85
2022-10-13T01:47:51.468Z,94.65
2022-10-13T01:48:51.487Z,94.76
2022-10-13T01:49:51.448Z,94.45
2022-10-13T01:50:51.436Z,95.43
2022-10-13T01:51:51.436Z,94.61
2022-10-13T01:52:51.420Z,95.64
2022-10-13T01:53:51.415Z,95.12
2022-10-13T01:54:51.406Z,95.43
2022-10-13T01:55:51.376Z,95.74
2022-10-13T01:56:51.367Z,95.64
2022-10-13T01:57:51.365Z,94.92
2022-10-13T01:58:51.355Z,95.53
2022-10-13T01:59:51.356Z,96.15
2022-10-13T02:00:51.348Z,95.53
2022-10-13T02:01:51.315Z,94.81
2022-10-13T02:02:51.296Z,93.59
2022-10-13T02:03:51.296Z,94.10
2022-10-13T02:04:51.276Z,94.51
2022-10-13T02:05:51.287Z,94.30
2022-10-13T02:06:51.257Z,94.10
2022-10-13T02:07:51.246Z,96.31
2022-10-13T02:08:51.225Z,93.17
2022-10-13T02:09:51.228Z,92.46
2022-10-13T02:10:51.234Z,91.53
2022-10-13T02:11:51.206Z,92.31
2022-10-13T02:12:51.187Z,94.26
2022-10-13T02:13:51.186Z,94.15
2022-10-13T02:14:51.165Z,94.56
2022-10-13T02:15:51.156Z,94.87
2022-10-13T02:16:51.155Z,95.69
2022-10-13T02:17:51.138Z,95.18
2022-10-13T02:18:51.121Z,94.98
2022-10-13T02:19:51.108Z,94.98
2022-10-13T02:20:51.094Z,95.86
2022-10-13T02:21:51.123Z,96.06
2022-10-13T02:22:51.076Z,95.75
2022-10-13T02:23:51.074Z,96.47
2022-10-13T02:24:51.057Z,95.75
2022-10-13T02:25:51.046Z,96.26
2022-10-13T02:26:51.034Z,96.47
2022-10-13T02:27:51.145Z,95.95
2022-10-13T02:28:51.135Z,95.34
2022-10-13T02:29:50.996Z,95.75
2022-10-13T02:30:50.982Z,95.44
2022-10-13T02:31:50.973Z,96.06
2022-10-13T02:32:50.964Z,95.95
2022-10-13T02:33:50.984Z,96.16
2022-10-13T02:34:50.944Z,96.16
2022-10-13T02:35:50.933Z,96.26
2022-10-13T02:36:50.915Z,96.88
2022-10-13T02:37:50.904Z,96.16
2022-10-13T02:38:50.893Z,96.37
2022-10-13T02:39:50.905Z,94.11
2022-10-13T02:40:50.875Z,92.27
2022-10-13T02:41:50.862Z,93.08
2022-10-13T02:42:50.846Z,91.38
2022-10-13T02:43:50.845Z,91.08
2022-10-13T02:44:50.825Z,91.55
2022-10-13T02:45:50.833Z,93.08
2022-10-13T02:46:50.804Z,93.60
2022-10-13T02:47:50.797Z,93.70
2022-10-13T02:48:50.786Z,94.32
2022-10-13T02:49:50.774Z,92.98
2022-10-13T02:50:50.787Z,93.39
2022-10-13T02:51:50.754Z,94.73
2022-10-13T02:52:50.736Z,95.44
2022-10-13T02:53:50.734Z,93.90
2022-10-13T02:54:50.713Z,94.32
2022-10-13T02:55:50.704Z,95.24
2022-10-13T02:56:50.703Z,95.14
2022-10-13T02:57:50.676Z,95.61
2022-10-13T02:58:50.676Z,94.83
2022-10-13T02:59:50.655Z,95.24
2022-10-13T03:00:50.691Z,95.91
2022-10-13T03:01:50.655Z,95.09
2022-10-13T03:02:50.626Z,96.01
2022-10-13T03:03:50.614Z,96.32
2022-10-13T03:04:50.604Z,96.42
2022-10-13T03:05:50.586Z,96.63
2022-10-13T03:06:50.581Z,96.53
2022-10-13T03:07:50.575Z,96.83
2022-10-13T03:08:50.564Z,96.32
2022-10-13T03:09:50.544Z,96.22
2022-10-13T03:10:50.534Z,96.22
2022-10-13T03:11:50.514Z,95.50
2022-10-13T03:12:50.536Z,96.01
2022-10-13T03:13:50.495Z,95.66
2022-10-13T03:14:50.483Z,96.01
2022-10-13T03:15:50.475Z,95.91
2022-10-13T03:16:50.464Z,95.20
2022-10-13T03:17:50.453Z,96.12
2022-10-13T03:18:50.464Z,94.07
2022-10-13T03:19:50.425Z,91.91
2022-10-13T03:20:50.422Z,91.20
2022-10-13T03:21:50.416Z,93.04
2022-10-13T03:22:50.394Z,92.02
2022-10-13T03:23:50.414Z,91.35
2022-10-13T03:24:50.376Z,91.55
2022-10-13T03:25:50.362Z,91.61
2022-10-13T03:26:50.353Z,90.89
2022-10-13T03:27:50.334Z,91.20
2022-10-13T03:28:50.396Z,91.44
2022-10-13T03:29:50.364Z,92.53
2022-10-13T03:30:50.307Z,92.22
2022-10-13T03:31:50.291Z,89.25
2022-10-13T03:32:50.286Z,91.50
2022-10-13T03:33:50.274Z,90.69
2022-10-13T03:34:50.263Z,89.87
2022-10-13T03:35:50.263Z,89.04
2022-10-13T03:36:50.236Z,89.56
2022-10-13T03:37:50.214Z,90.07
2022-10-13T03:38:50.223Z,91.91
2022-10-13T03:39:50.203Z,92.12
2022-10-13T03:40:50.215Z,92.32
2022-10-13T03:41:50.178Z,92.94
2022-10-13T03:42:50.164Z,92.94
2022-10-13T03:43:50.154Z,93.30
2022-10-13T03:44:55.223Z,94.23
2022-10-13T03:45:51.153Z,94.23
2022-10-13T03:46:50.164Z,93.62
2022-10-13T03:47:50.108Z,93.51
2022-10-13T03:48:50.104Z,93.00
2022-10-13T03:49:57.128Z,93.82
2022-10-13T03:50:50.077Z,92.49
2022-10-13T03:51:50.107Z,92.38
2022-10-13T03:52:50.056Z,92.59
2022-10-13T03:53:50.048Z,91.77
2022-10-13T03:54:50.037Z,92.49
2022-10-13T03:55:50.017Z,94.02
2022-10-13T03:56:50.017Z,94.12
2022-10-13T03:57:50.018Z,94.12
2022-10-13T03:58:49.986Z,93.82
2022-10-13T03:59:49.968Z,93.98
2022-10-13T04:00:49.966Z,92.59
2022-10-13T04:01:50.007Z,92.59
2022-10-13T04:02:49.942Z,93.88
2022-10-13T04:03:49.951Z,94.18
2022-10-13T04:04:49.917Z,94.70
2022-10-13T04:05:49.908Z,94.70
2022-10-13T04:06:49.896Z,94.90
2022-10-13T04:07:49.877Z,95.00
2022-10-13T04:08:49.877Z,95.31
2022-10-13T04:09:49.885Z,95.47
2022-10-13T04:10:49.867Z,95.47
2022-10-13T04:11:49.830Z,95.67
2022-10-13T04:12:49.831Z,96.19
2022-10-13T04:13:49.819Z,96.08
2022-10-13T04:14:49.798Z,96.29
2022-10-13T04:15:49.806Z,96.08
2022-10-13T04:16:49.777Z,96.19
2022-10-13T04:17:49.808Z,96.03
2022-10-13T04:18:49.757Z,96.13
2022-10-13T04:19:49.747Z,96.23
2022-10-13T04:20:49.758Z,94.90
2022-10-13T04:21:49.729Z,95.31
2022-10-13T04:22:49.713Z,95.47
2022-10-13T04:23:49.697Z,95.67
2022-10-13T04:24:49.687Z,96.19
2022-10-13T04:25:49.667Z,96.29
2022-10-13T04:26:49.708Z,96.19
2022-10-13T04:27:49.647Z,95.67
2022-10-13T04:28:49.762Z,95.17
2022-10-13T04:29:49.667Z,95.88
2022-10-13T04:30:49.805Z,96.08
2022-10-13T04:31:49.625Z,96.29
2022-10-13T04:32:49.680Z,96.29
2022-10-13T04:33:49.587Z,96.08
2022-10-13T04:34:49.575Z,95.98
2022-10-13T04:35:49.556Z,95.78
2022-10-13T04:36:49.552Z,95.57
2022-10-13T04:37:49.556Z,95.57
2022-10-13T04:38:49.526Z,95.26
2022-10-13T04:39:49.507Z,96.04
2022-10-13T04:40:49.506Z,95.94
2022-10-13T04:41:49.496Z,96.45
2022-10-13T04:42:49.486Z,95.94
2022-10-13T04:43:49.495Z,96.55
2022-10-13T04:44:49.476Z,96.14
2022-10-13T04:45:49.446Z,97.16
2022-10-13T04:46:49.436Z,95.84
2022-10-13T04:47:49.416Z,96.14
2022-10-13T04:48:49.409Z,95.37
2022-10-13T04:49:49.416Z,94.85
2022-10-13T04:50:49.386Z,94.60
2022-10-13T04:51:49.368Z,94.40
2022-10-13T04:52:49.364Z,94.51
2022-10-13T04:53:49.349Z,93.79
2022-10-13T04:54:49.336Z,94.30
2022-10-13T04:55:49.336Z,93.79
2022-10-13T04:56:49.317Z,93.79
2022-10-13T04:57:49.305Z,94.51
2022-10-13T04:58:49.298Z,94.81
2022-10-13T04:59:49.276Z,94.81
2022-10-13T05:00:49.344Z,95.73
2022-10-13T05:01:49.258Z,94.92
2022-10-13T05:02:49.255Z,95.53
2022-10-13T05:03:49.263Z,94.46
2022-10-13T05:04:49.236Z,95.18
2022-10-13T05:05:49.214Z,95.22
2022-10-13T05:07:16.043Z,92.87
2022-10-13T05:07:50.186Z,93.99
2022-10-13T05:08:49.177Z,93.89
2022-10-13T05:09:49.166Z,93.79
2022-10-13T05:10:49.155Z,93.99
2022-10-13T05:11:49.144Z,94.40
2022-10-13T05:12:49.157Z,93.28
2022-10-13T05:13:49.168Z,93.79
2022-10-13T05:14:49.106Z,93.99
2022-10-13T05:15:49.098Z,93.79
2022-10-13T05:16:49.086Z,93.89
2022-10-13T05:17:49.076Z,94.36
2022-10-13T05:18:49.088Z,93.69
2022-10-13T05:19:49.046Z,93.89
2022-10-13T05:20:49.047Z,94.87
2022-10-13T05:21:49.048Z,94.26
2022-10-13T05:22:49.016Z,94.26
2022-10-13T05:23:49.006Z,94.46
2022-10-13T05:24:49.015Z,94.81
2022-10-13T05:25:48.995Z,94.36
2022-10-13T05:26:48.975Z,95.79
2022-10-13T05:27:48.974Z,94.40
2022-10-13T05:28:48.993Z,93.48
2022-10-13T05:29:49.447Z,92.46
2022-10-13T05:30:48.935Z,91.85
2022-10-13T05:31:48.915Z,92.77
2022-10-13T05:32:53.624Z,92.87
2022-10-13T05:33:49.928Z,93.38
2022-10-13T05:34:48.885Z,93.89
2022-10-13T05:35:48.883Z,92.66
2022-10-13T05:36:48.857Z,92.36
2022-10-13T05:37:48.844Z,91.74
2022-10-13T05:38:48.836Z,91.95
2022-10-13T05:39:49.092Z,92.77
2022-10-13T05:40:48.847Z,92.25
2022-10-13T05:41:48.796Z,90.92
2022-10-13T05:42:48.798Z,91.95
2022-10-13T05:43:48.775Z,91.23
2022-10-13T05:44:48.835Z,92.01
2022-10-13T05:45:48.755Z,92.01
2022-10-13T05:46:48.765Z,92.01
2022-10-13T05:47:48.727Z,93.03
2022-10-13T05:48:48.725Z,93.65
2022-10-13T05:49:48.706Z,93.85
2022-10-13T05:50:48.696Z,95.34
2022-10-13T05:51:48.686Z,94.77
2022-10-13T05:52:48.695Z,94.97
2022-10-13T05:53:50.357Z,96.66
2022-10-13T05:54:48.655Z,97.57
2022-10-13T05:55:48.635Z,95.47
2022-10-13T05:56:48.626Z,95.98
2022-10-13T05:57:48.617Z,95.98
2022-10-13T05:58:48.625Z,95.67
2022-10-13T05:59:48.589Z,95.57
2022-10-13T06:00:48.590Z,95.72
2022-10-13T06:01:48.621Z,95.82
2022-10-13T06:02:48.569Z,96.08
2022-10-13T06:03:48.549Z,95.98
2022-10-13T06:04:48.556Z,96.59
2022-10-13T06:05:48.546Z,96.49
2022-10-13T06:06:48.516Z,96.49
2022-10-13T06:07:48.506Z,96.70
2022-10-13T06:08:48.485Z,96.80
2022-10-13T06:09:48.475Z,96.59
2022-10-13T06:10:48.484Z,96.70
2022-10-13T06:11:48.456Z,97.00
2022-10-13T06:12:48.454Z,97.00
2022-10-13T06:13:48.427Z,96.70
2022-10-13T06:14:48.423Z,96.13
2022-10-13T06:15:48.426Z,97.77
2022-10-13T06:16:48.395Z,96.79
2022-10-13T06:17:48.385Z,94.95
2022-10-13T06:18:48.375Z,95.36
2022-10-13T06:19:48.355Z,94.58
2022-10-13T06:20:48.363Z,94.58
2022-10-13T06:21:48.365Z,94.58
2022-10-13T06:22:48.329Z,93.96
2022-10-13T06:23:48.315Z,94.37
2022-10-13T06:24:48.315Z,94.78
2022-10-13T06:25:48.293Z,94.37
2022-10-13T06:26:48.291Z,94.07
2022-10-13T06:27:48.285Z,93.45
2022-10-13T06:28:51.096Z,94.07
2022-10-13T06:29:48.246Z,93.86
2022-10-13T06:30:48.245Z,93.82
2022-10-13T06:31:48.225Z,93.20
2022-10-13T06:32:48.215Z,93.82
2022-10-13T06:33:48.223Z,93.41
2022-10-13T06:34:48.195Z,94.33
2022-10-13T06:35:48.184Z,93.16
2022-10-13T06:36:48.175Z,93.77
2022-10-13T06:37:48.166Z,94.39
2022-10-13T06:38:48.202Z,95.00
2022-10-13T06:39:48.137Z,95.17
2022-10-13T06:40:48.125Z,95.26
2022-10-13T06:41:48.111Z,95.88
2022-10-13T06:42:48.103Z,95.57
2022-10-13T06:43:48.086Z,96.04
2022-10-13T06:44:48.103Z,95.94
2022-10-13T06:45:48.065Z,95.73
2022-10-13T06:46:48.059Z,95.63
2022-10-13T06:47:48.047Z,96.14
2022-10-13T06:48:48.035Z,96.66
2022-10-13T06:49:48.015Z,96.55
2022-10-13T06:50:48.026Z,96.14
2022-10-13T06:51:47.995Z,96.04
2022-10-13T06:52:47.987Z,96.25
2022-10-13T06:53:47.974Z,95.94
2022-10-13T06:54:47.965Z,96.66
2022-10-13T06:55:52.246Z,96.20
2022-10-13T06:56:47.943Z,96.66
2022-10-13T06:57:47.931Z,96.25
2022-10-13T06:58:47.917Z,96.34
2022-10-13T06:59:47.906Z,96.14
2022-10-13T07:00:47.937Z,96.25
2022-10-13T07:01:47.895Z,96.14
2022-10-13T07:02:47.874Z,96.19
2022-10-13T07:03:47.865Z,95.88
2022-10-13T07:04:47.848Z,95.37
2022-10-13T07:05:47.835Z,95.53
2022-10-13T07:06:47.853Z,95.32
2022-10-13T07:07:47.812Z,95.94
2022-10-13T07:08:47.804Z,95.53
2022-10-13T07:09:47.785Z,96.25
2022-10-13T07:10:47.784Z,95.73
2022-10-13T07:11:47.777Z,95.53
2022-10-13T07:12:47.777Z,95.98
2022-10-13T07:13:47.847Z,94.96
2022-10-13T07:14:47.795Z,96.59
2022-10-13T07:15:47.727Z,96.08
2022-10-13T07:16:47.705Z,95.22
2022-10-13T07:17:47.694Z,95.43
2022-10-13T07:18:47.705Z,96.34
2022-10-13T07:19:47.674Z,95.67
2022-10-13T07:20:47.663Z,94.51
2022-10-13T07:21:47.654Z,95.02
2022-10-13T07:22:47.639Z,94.30
2022-10-13T07:23:47.633Z,94.77
2022-10-13T07:24:47.624Z,94.97
2022-10-13T07:25:47.604Z,94.46
2022-10-13T07:26:47.594Z,94.32
2022-10-13T07:27:47.584Z,95.03
2022-10-13T07:28:47.582Z,95.44
2022-10-13T07:29:47.585Z,95.23
2022-10-13T07:30:47.545Z,96.01
2022-10-13T07:31:47.534Z,96.72
2022-10-13T07:32:47.525Z,96.92
2022-10-13T07:33:47.515Z,96.01
2022-10-13T07:34:47.508Z,96.01
2022-10-13T07:35:47.544Z,96.62
2022-10-13T07:36:47.484Z,97.33
2022-10-13T07:37:47.550Z,97.44
2022-10-13T07:38:47.454Z,97.24
2022-10-13T07:39:47.456Z,96.78
2022-10-13T07:40:47.437Z,97.60
2022-10-13T07:41:50.870Z,96.58
2022-10-13T07:42:47.413Z,96.06
2022-10-13T07:43:47.405Z,96.06
2022-10-13T07:44:47.384Z,93.06
2022-10-13T07:45:47.377Z,94.45
2022-10-13T07:46:47.366Z,93.22
2022-10-13T07:47:47.376Z,94.45
2022-10-13T07:48:47.344Z,92.81
2022-10-13T07:49:47.335Z,93.59
2022-10-13T07:50:47.324Z,92.87
2022-10-13T07:51:47.314Z,94.14
2022-10-13T07:52:47.294Z,93.48
2022-10-13T07:53:47.313Z,92.36
2022-10-13T07:54:47.295Z,93.33
2022-10-13T07:55:47.265Z,94.05
2022-10-13T07:56:47.252Z,93.70
2022-10-13T07:57:47.244Z,95.07
2022-10-13T07:58:47.233Z,94.56
2022-10-13T07:59:47.234Z,95.07
2022-10-13T08:00:47.207Z,96.14
2022-10-13T08:01:47.240Z,93.89
2022-10-13T08:02:47.185Z,94.60
2022-10-13T08:03:50.133Z,94.04
2022-10-13T08:04:47.175Z,93.93
2022-10-13T08:05:47.154Z,92.81
2022-10-13T08:06:47.139Z,93.22
2022-10-13T08:07:47.130Z,92.50
2022-10-13T08:08:47.118Z,93.18
2022-10-13T08:09:47.105Z,93.73
2022-10-13T08:10:47.137Z,92.41
2022-10-13T08:11:47.083Z,91.28
2022-10-13T08:12:47.082Z,92.36
2022-10-13T08:13:47.064Z,94.50
2022-10-13T08:15:47.075Z,93.32
2022-10-13T08:16:49.917Z,92.16
2022-10-13T08:17:48.015Z,93.18
2022-10-13T08:18:46.997Z,93.13
2022-10-13T08:19:46.995Z,93.60
2022-10-13T08:20:46.975Z,94.42
2022-10-13T08:21:59.224Z,94.62
2022-10-13T08:22:47.973Z,95.08
2022-10-13T08:23:46.945Z,95.79
2022-10-13T08:24:46.935Z,95.69
2022-10-13T08:25:46.927Z,95.90
2022-10-13T08:26:46.906Z,96.00
2022-10-13T08:27:51.082Z,96.46
2022-10-13T08:29:02.927Z,96.97
2022-10-13T08:29:47.875Z,96.92
2022-10-13T08:30:47.030Z,96.81
2022-10-13T08:31:46.977Z,96.66
2022-10-13T08:32:46.844Z,96.09
2022-10-13T08:33:46.856Z,95.17
2022-10-13T08:34:46.815Z,95.58
2022-10-13T08:35:46.806Z,95.07
2022-10-13T08:36:46.797Z,94.15
2022-10-13T08:37:46.797Z,94.76
2022-10-13T08:38:46.766Z,94.09
2022-10-13T08:39:46.807Z,92.77
2022-10-13T08:40:46.748Z,92.97
2022-10-13T08:41:46.752Z,93.18
2022-10-13T08:42:46.728Z,92.77
2022-10-13T08:44:24.730Z,92.77
2022-10-13T08:45:16.117Z,93.03
2022-10-13T08:45:47.694Z,93.44
2022-10-13T08:46:46.676Z,94.05
2022-10-13T08:47:46.674Z,93.69
2022-10-13T08:48:46.658Z,93.13
2022-10-13T08:49:46.648Z,93.33
2022-10-13T08:50:46.656Z,93.44
2022-10-13T08:51:46.626Z,92.87
2022-10-13T08:52:46.606Z,92.97
2022-10-13T08:53:46.619Z,92.36
2022-10-13T08:54:46.591Z,92.42
2022-10-13T08:55:46.579Z,93.29
2022-10-13T08:56:46.586Z,94.92
2022-10-13T08:57:46.565Z,94.52
2022-10-13T08:58:46.549Z,94.66
2022-10-13T08:59:46.535Z,93.48
2022-10-13T09:00:46.517Z,92.87
2022-10-13T09:01:46.554Z,93.03
2022-10-13T09:02:46.518Z,92.32
2022-10-13T09:03:46.486Z,93.95
2022-10-13T09:04:46.474Z,93.85
2022-10-13T09:05:46.467Z,94.05
2022-10-13T09:06:46.464Z,94.05
2022-10-13T09:07:46.482Z,93.85
2022-10-13T09:08:46.447Z,94.01
2022-10-13T09:09:46.420Z,93.50
2022-10-13T09:10:46.407Z,94.52
2022-10-13T09:11:46.399Z,94.42
2022-10-13T09:12:46.376Z,94.11
2022-10-13T09:13:46.374Z,94.92
2022-10-13T09:14:46.380Z,94.15
2022-10-13T09:15:46.348Z,94.26
2022-10-13T09:16:46.346Z,92.83
2022-10-13T09:17:46.327Z,94.35
2022-10-13T09:18:46.308Z,93.95
2022-10-13T09:19:46.324Z,93.70
2022-10-13T09:20:46.304Z,94.31
2022-10-13T09:21:46.285Z,95.23
2022-10-13T09:22:46.267Z,95.23
2022-10-13T09:23:46.258Z,94.62
2022-10-13T09:24:46.244Z,94.92
2022-10-13T09:25:46.256Z,94.21
2022-10-13T09:26:46.218Z,94.98
2022-10-13T09:27:46.215Z,96.51
2022-10-13T09:28:46.319Z,97.32
2022-10-13T09:29:46.187Z,96.41
2022-10-13T09:30:46.176Z,96.77
2022-10-13T09:31:46.186Z,97.07
2022-10-13T09:32:46.155Z,97.58
2022-10-13T09:33:46.257Z,98.60
2022-10-13T09:34:46.128Z,98.35
2022-10-13T09:35:46.117Z,97.78
2022-10-13T09:36:46.127Z,98.30
2022-10-13T09:37:46.097Z,98.30
2022-10-13T09:38:46.084Z,98.30
2022-10-13T09:39:46.107Z,98.70
2022-10-13T09:40:46.059Z,97.78
2022-10-13T09:41:46.057Z,97.69
2022-10-13T09:42:46.087Z,97.89
2022-10-13T09:43:46.033Z,97.78
2022-10-13T09:44:46.017Z,98.19
2022-10-13T09:45:46.007Z,97.48
2022-10-13T09:46:45.988Z,98.39
2022-10-13T09:47:45.985Z,97.84
2022-10-13T09:48:45.998Z,98.50
2022-10-13T09:49:54.021Z,98.50
2022-10-13T09:50:45.949Z,98.81
2022-10-13T09:51:45.940Z,98.91
2022-10-13T09:52:45.920Z,98.71
2022-10-13T09:53:45.921Z,98.81
2022-10-13T09:54:45.920Z,99.11
2022-10-13T09:55:45.891Z,99.17
2022-10-13T09:56:45.871Z,99.48
2022-10-13T09:57:45.870Z,99.38
2022-10-13T09:59:45.872Z,99.63
2022-10-13T10:00:45.830Z,99.73
2022-10-13T10:01:45.824Z,99.52
2022-10-13T10:02:45.802Z,99.48
2022-10-13T10:03:45.832Z,99.38
2022-10-13T10:04:45.794Z,99.38
2022-10-13T10:05:45.799Z,98.97
2022-10-13T10:06:45.761Z,99.68
2022-10-13T10:07:45.761Z,99.43
2022-10-13T10:09:01.985Z,99.78
2022-10-13T10:09:46.734Z,99.48
2022-10-13T10:10:45.743Z,99.38
2022-10-13T10:11:45.711Z,99.17
2022-10-13T10:12:45.702Z,99.63
2022-10-13T10:13:45.681Z,99.32
2022-10-13T10:14:45.671Z,99.38
2022-10-13T10:15:45.661Z,99.38
2022-10-13T10:16:45.671Z,99.32
2022-10-13T10:17:45.642Z,99.27
2022-10-13T10:18:45.622Z,99.27
2022-10-13T10:19:45.620Z,99.27
2022-10-13T10:20:45.602Z,99.27
2022-10-13T10:21:45.593Z,99.27
2022-10-13T10:22:45.601Z,99.27
2022-10-13T10:23:45.572Z,99.63
2022-10-13T10:24:45.554Z,99.22
2022-10-13T10:25:45.552Z,99.22
2022-10-13T10:26:45.531Z,98.91
2022-10-13T10:27:45.537Z,98.91
2022-10-13T10:28:45.603Z,99.27
2022-10-13T10:29:45.502Z,99.48
2022-10-13T10:30:45.493Z,99.53
2022-10-13T10:31:45.480Z,99.53
2022-10-13T10:32:45.461Z,99.74
2022-10-13T10:33:45.482Z,99.74
2022-10-13T10:34:45.441Z,99.48
2022-10-13T10:35:45.435Z,99.07
2022-10-13T10:36:45.422Z,99.53
2022-10-13T10:37:45.413Z,99.49
2022-10-13T10:38:45.398Z,99.74
2022-10-13T10:39:45.413Z,99.64
2022-10-13T10:40:45.372Z,99.44
2022-10-13T10:41:45.366Z,99.33
2022-10-13T10:42:49.710Z,99.39
2022-10-13T10:43:46.343Z,98.99
2022-10-13T10:45:45.344Z,98.99
2022-10-13T10:46:45.306Z,97.83
2022-10-13T10:47:45.463Z,97.53
2022-10-13T10:48:45.282Z,98.09
2022-10-13T10:49:45.273Z,97.44
2022-10-13T10:50:45.264Z,96.83
2022-10-13T10:51:45.296Z,96.42
2022-10-13T10:52:45.255Z,96.22
2022-10-13T10:53:45.224Z,95.06
2022-10-13T10:54:48.311Z,95.97
2022-10-13T10:55:45.203Z,96.51
2022-10-13T10:56:45.193Z,97.23
2022-10-13T10:57:45.203Z,97.73
2022-10-13T10:58:45.164Z,97.38
2022-10-13T10:59:49.095Z,96.57
2022-10-13T11:00:45.146Z,96.57
2022-10-13T11:01:45.194Z,96.98
2022-10-13T11:02:45.124Z,97.18
2022-10-13T11:03:45.134Z,96.53
2022-10-13T11:04:45.105Z,95.67
2022-10-13T11:05:45.084Z,94.51
2022-10-13T11:06:45.083Z,93.60
2022-10-13T11:07:45.066Z,93.51
2022-10-13T11:08:45.044Z,93.00
2022-10-13T11:09:45.058Z,93.20
2022-10-13T11:10:45.024Z,92.45
2022-10-13T11:11:45.016Z,92.19
2022-10-13T11:12:45.005Z,93.65
2022-10-13T11:13:44.994Z,94.06
2022-10-13T11:14:45.003Z,94.91
2022-10-13T11:15:44.982Z,95.47
2022-10-13T11:16:44.977Z,94.72
2022-10-13T11:17:44.945Z,93.26
2022-10-13T11:18:44.936Z,93.66
2022-10-13T11:19:44.925Z,92.55
2022-10-13T11:20:44.925Z,91.74
2022-10-13T11:21:44.906Z,91.89
2022-10-13T11:22:44.894Z,93.60
2022-10-13T11:23:44.899Z,94.11
2022-10-13T11:24:44.865Z,93.75
2022-10-13T11:25:44.873Z,94.56
2022-10-13T11:26:44.845Z,93.91
2022-10-13T11:27:44.826Z,93.26
2022-10-13T11:28:44.853Z,92.55
2022-10-13T11:29:44.943Z,92.00
2022-10-13T11:30:44.800Z,89.43
2022-10-13T11:31:44.797Z,87.92
2022-10-13T11:32:44.776Z,85.56
2022-10-13T11:33:44.756Z,84.75
2022-10-13T11:34:44.758Z,84.95
2022-10-13T11:35:44.737Z,82.93
2022-10-13T11:36:44.767Z,82.53
2022-10-13T11:37:51.730Z,83.40
2022-10-13T11:38:45.707Z,81.28
2022-10-13T11:39:44.767Z,81.48
2022-10-13T11:40:44.687Z,80.78
2022-10-13T11:41:44.695Z,81.24
2022-10-13T11:42:44.709Z,79.43
2022-10-13T11:43:44.648Z,78.22
2022-10-13T11:44:44.638Z,77.42
2022-10-13T11:45:44.658Z,77.92
2022-10-13T11:46:44.628Z,78.46
2022-10-13T11:47:44.599Z,78.36
2022-10-13T11:48:44.619Z,79.21
2022-10-13T11:49:44.587Z,80.01
2022-10-13T11:50:44.590Z,80.58
2022-10-13T11:51:44.560Z,77.75
2022-10-13T11:52:44.556Z,79.64
2022-10-13T11:53:44.572Z,79.34
2022-10-13T11:54:44.529Z,81.56
2022-10-13T11:55:44.519Z,82.47
2022-10-13T11:56:47.562Z,80.51
2022-10-13T11:57:44.499Z,79.47
2022-10-13T11:58:44.489Z,77.15
2022-10-13T11:59:44.500Z,76.81
2022-10-13T12:00:44.468Z,76.31
2022-10-13T12:01:44.449Z,76.10
2022-10-13T12:02:44.466Z,76.44
2022-10-13T12:03:44.441Z,76.95
2022-10-13T12:04:46.656Z,76.24
2022-10-13T12:05:44.430Z,76.18
2022-10-13T12:06:44.400Z,77.93
2022-10-13T12:07:44.381Z,78.09
2022-10-13T12:08:44.371Z,78.50
2022-10-13T12:09:44.361Z,77.95
2022-10-13T12:10:44.351Z,77.31
2022-10-13T12:11:44.362Z,75.50
2022-10-13T12:12:44.331Z,75.60
2022-10-13T12:13:44.312Z,75.70
2022-10-13T12:14:44.305Z,75.60
2022-10-13T12:15:44.301Z,75.94
2022-10-13T12:16:45.259Z,77.45
2022-10-13T12:17:44.294Z,76.44
2022-10-13T12:18:44.262Z,76.64
2022-10-13T12:19:44.242Z,76.44
2022-10-13T12:20:44.246Z,77.79
2022-10-13T12:21:44.222Z,78.09
2022-10-13T12:22:44.232Z,78.50
2022-10-13T12:23:44.222Z,77.66
2022-10-13T12:24:44.194Z,77.04
2022-10-13T12:25:44.192Z,77.25
2022-10-13T12:26:44.173Z,77.55
2022-10-13T12:27:44.153Z,76.95
2022-10-13T12:28:44.253Z,76.95
2022-10-13T12:29:44.136Z,76.95
2022-10-13T12:30:44.132Z,77.86
2022-10-13T12:31:44.114Z,77.66
2022-10-13T12:32:44.111Z,77.25
2022-10-13T12:33:44.093Z,76.84
2022-10-13T12:34:44.136Z,77.25
2022-10-13T12:35:44.101Z,76.75
2022-10-13T12:36:44.074Z,76.98
2022-10-13T12:37:44.044Z,78.36
2022-10-13T12:38:44.046Z,77.72
2022-10-13T12:39:44.025Z,77.42
2022-10-13T12:40:44.090Z,77.42
2022-10-13T12:41:44.004Z,76.51
2022-10-13T12:42:43.995Z,76.27
2022-10-13T12:43:43.984Z,75.43
2022-10-13T12:44:43.974Z,75.56
2022-10-13T12:45:43.973Z,75.67
2022-10-13T12:46:43.974Z,75.33
2022-10-13T12:47:43.934Z,75.16
2022-10-13T12:48:43.933Z,76.00
2022-10-13T12:49:43.917Z,75.96
2022-10-13T12:50:43.905Z,75.26
2022-10-13T12:51:43.895Z,75.33
2022-10-13T12:52:43.904Z,74.62
2022-10-13T12:53:43.875Z,75.16
2022-10-13T12:54:43.864Z,75.76
2022-10-13T12:55:43.858Z,75.67